sensor_id;sensor_type;location;lat;lon;timestamp;temperature;humidity
4107;DHT22;21906;50.812;7.132;2023-05-15T00:02:04;14.90;73.00
4107;DHT22;21906;50.812;7.132;2023-05-15T00:04:31;14.90;73.00
4107;DHT22;21906;50.812;7.132;2023-05-15T00:06:56;14.90;73.10
4107;DHT22;21906;50.812;7.132;2023-05-15T00:09:22;14.80;73.50
4107;DHT22;21906;50.812;7.132;2023-05-15T00:11:48;14.70;73.50
4107;DHT22;21906;50.812;7.132;2023-05-15T00:14:13;14.70;73.60
4107;DHT22;21906;50.812;7.132;2023-05-15T00:16:39;14.60;73.70
4107;DHT22;21906;50.812;7.132;2023-05-15T00:19:05;14.70;73.70
4107;DHT22;21906;50.812;7.132;2023-05-15T00:21:31;14.70;73.80
4107;DHT22;21906;50.812;7.132;2023-05-15T00:23:56;14.70;73.80
4107;DHT22;21906;50.812;7.132;2023-05-15T00:26:23;14.60;73.80
4107;DHT22;21906;50.812;7.132;2023-05-15T00:28:49;14.60;74.00
4107;DHT22;21906;50.812;7.132;2023-05-15T00:31:15;14.50;74.20
4107;DHT22;21906;50.812;7.132;2023-05-15T00:33:41;14.50;74.50
4107;DHT22;21906;50.812;7.132;2023-05-15T00:36:07;14.50;74.60
4107;DHT22;21906;50.812;7.132;2023-05-15T00:38:33;14.50;74.60
4107;DHT22;21906;50.812;7.132;2023-05-15T00:41:00;14.50;74.60
4107;DHT22;21906;50.812;7.132;2023-05-15T00:43:27;14.50;74.70
4107;DHT22;21906;50.812;7.132;2023-05-15T00:45:53;14.50;74.70
4107;DHT22;21906;50.812;7.132;2023-05-15T00:48:21;14.40;74.60
4107;DHT22;21906;50.812;7.132;2023-05-15T00:50:50;14.40;74.90
4107;DHT22;21906;50.812;7.132;2023-05-15T00:53:18;14.40;74.80
4107;DHT22;21906;50.812;7.132;2023-05-15T00:55:46;14.40;74.90
4107;DHT22;21906;50.812;7.132;2023-05-15T00:58:14;14.30;75.00
4107;DHT22;21906;50.812;7.132;2023-05-15T01:00:41;14.30;75.20
4107;DHT22;21906;50.812;7.132;2023-05-15T01:03:07;14.30;75.40
4107;DHT22;21906;50.812;7.132;2023-05-15T01:05:33;14.20;75.90
4107;DHT22;21906;50.812;7.132;2023-05-15T01:08:41;14.10;76.00
4107;DHT22;21906;50.812;7.132;2023-05-15T01:11:05;14.10;76.20
4107;DHT22;21906;50.812;7.132;2023-05-15T01:13:31;14.00;76.20
4107;DHT22;21906;50.812;7.132;2023-05-15T01:15:57;14.00;76.00
4107;DHT22;21906;50.812;7.132;2023-05-15T01:18:23;14.00;75.70
4107;DHT22;21906;50.812;7.132;2023-05-15T01:32:23;13.90;76.20
4107;DHT22;21906;50.812;7.132;2023-05-15T01:37:18;13.90;76.00
4107;DHT22;21906;50.812;7.132;2023-05-15T01:39:47;13.90;75.70
4107;DHT22;21906;50.812;7.132;2023-05-15T01:42:15;13.90;75.80
4107;DHT22;21906;50.812;7.132;2023-05-15T01:44:45;13.90;75.70
4107;DHT22;21906;50.812;7.132;2023-05-15T01:50:03;13.80;75.70
4107;DHT22;21906;50.812;7.132;2023-05-15T01:52:33;13.80;75.80
4107;DHT22;21906;50.812;7.132;2023-05-15T01:55:03;13.80;76.00
4107;DHT22;21906;50.812;7.132;2023-05-15T01:57:30;13.80;76.10
4107;DHT22;21906;50.812;7.132;2023-05-15T01:59:58;13.90;76.30
4107;DHT22;21906;50.812;7.132;2023-05-15T02:02:26;13.90;76.50
4107;DHT22;21906;50.812;7.132;2023-05-15T02:04:52;13.90;76.80
4107;DHT22;21906;50.812;7.132;2023-05-15T02:07:18;13.90;77.00
4107;DHT22;21906;50.812;7.132;2023-05-15T02:09:44;13.90;77.40
4107;DHT22;21906;50.812;7.132;2023-05-15T02:12:10;14.00;77.10
4107;DHT22;21906;50.812;7.132;2023-05-15T02:14:37;14.00;77.70
4107;DHT22;21906;50.812;7.132;2023-05-15T02:17:04;14.00;77.50
4107;DHT22;21906;50.812;7.132;2023-05-15T02:19:29;14.00;77.60
4107;DHT22;21906;50.812;7.132;2023-05-15T02:21:55;14.00;77.70
4107;DHT22;21906;50.812;7.132;2023-05-15T02:24:21;14.00;77.60
4107;DHT22;21906;50.812;7.132;2023-05-15T02:26:57;14.10;77.90
4107;DHT22;21906;50.812;7.132;2023-05-15T02:29:33;14.10;77.90
4107;DHT22;21906;50.812;7.132;2023-05-15T02:34:44;14.20;77.60
4107;DHT22;21906;50.812;7.132;2023-05-15T02:37:13;14.30;77.60
4107;DHT22;21906;50.812;7.132;2023-05-15T02:39:42;14.30;77.80
4107;DHT22;21906;50.812;7.132;2023-05-15T02:42:12;14.30;77.80
4107;DHT22;21906;50.812;7.132;2023-05-15T02:44:39;14.30;77.90
4107;DHT22;21906;50.812;7.132;2023-05-15T02:47:06;14.30;77.70
4107;DHT22;21906;50.812;7.132;2023-05-15T02:49:32;14.30;77.50
4107;DHT22;21906;50.812;7.132;2023-05-15T02:51:58;14.30;77.70
4107;DHT22;21906;50.812;7.132;2023-05-15T02:54:24;14.40;77.80
4107;DHT22;21906;50.812;7.132;2023-05-15T02:56:49;14.40;77.70
4107;DHT22;21906;50.812;7.132;2023-05-15T02:59:15;14.40;77.60
4107;DHT22;21906;50.812;7.132;2023-05-15T03:01:44;14.40;77.60
4107;DHT22;21906;50.812;7.132;2023-05-15T03:04:13;14.50;77.70
4107;DHT22;21906;50.812;7.132;2023-05-15T03:06:39;14.50;77.70
4107;DHT22;21906;50.812;7.132;2023-05-15T03:09:04;14.30;79.60
4107;DHT22;21906;50.812;7.132;2023-05-15T03:11:30;14.10;79.90
4107;DHT22;21906;50.812;7.132;2023-05-15T03:13:55;14.30;79.60
4107;DHT22;21906;50.812;7.132;2023-05-15T03:16:21;14.30;79.50
4107;DHT22;21906;50.812;7.132;2023-05-15T03:18:47;14.40;79.60
4107;DHT22;21906;50.812;7.132;2023-05-15T03:21:12;14.40;81.00
4107;DHT22;21906;50.812;7.132;2023-05-15T03:23:38;14.50;81.50
4107;DHT22;21906;50.812;7.132;2023-05-15T03:26:04;14.50;82.50
4107;DHT22;21906;50.812;7.132;2023-05-15T03:28:29;14.50;82.80
4107;DHT22;21906;50.812;7.132;2023-05-15T03:30:55;14.60;82.80
4107;DHT22;21906;50.812;7.132;2023-05-15T03:33:21;14.60;82.80
4107;DHT22;21906;50.812;7.132;2023-05-15T03:35:47;14.70;82.90
4107;DHT22;21906;50.812;7.132;2023-05-15T03:38:12;14.80;82.80
4107;DHT22;21906;50.812;7.132;2023-05-15T03:40:38;14.80;82.90
4107;DHT22;21906;50.812;7.132;2023-05-15T03:43:04;14.80;82.90
4107;DHT22;21906;50.812;7.132;2023-05-15T03:45:32;14.80;82.60
4107;DHT22;21906;50.812;7.132;2023-05-15T03:47:58;14.80;82.60
4107;DHT22;21906;50.812;7.132;2023-05-15T03:50:24;14.90;82.40
4107;DHT22;21906;50.812;7.132;2023-05-15T03:52:50;14.90;82.10
4107;DHT22;21906;50.812;7.132;2023-05-15T03:55:15;14.90;82.10
4107;DHT22;21906;50.812;7.132;2023-05-15T03:57:41;14.90;82.10
4107;DHT22;21906;50.812;7.132;2023-05-15T04:00:08;14.90;82.00
4107;DHT22;21906;50.812;7.132;2023-05-15T04:02:37;14.90;81.90
4107;DHT22;21906;50.812;7.132;2023-05-15T04:05:06;14.90;81.80
4107;DHT22;21906;50.812;7.132;2023-05-15T04:07:33;14.80;81.70
4107;DHT22;21906;50.812;7.132;2023-05-15T04:09:59;14.80;81.60
4107;DHT22;21906;50.812;7.132;2023-05-15T04:12:29;14.90;81.30
4107;DHT22;21906;50.812;7.132;2023-05-15T04:15:04;14.90;81.20
4107;DHT22;21906;50.812;7.132;2023-05-15T04:17:37;14.80;81.10
4107;DHT22;21906;50.812;7.132;2023-05-15T04:20:03;14.80;81.20
4107;DHT22;21906;50.812;7.132;2023-05-15T04:22:29;14.80;81.00
4107;DHT22;21906;50.812;7.132;2023-05-15T04:24:55;14.80;80.90
4107;DHT22;21906;50.812;7.132;2023-05-15T04:27:20;14.80;80.70
4107;DHT22;21906;50.812;7.132;2023-05-15T04:29:46;14.80;80.70
4107;DHT22;21906;50.812;7.132;2023-05-15T04:32:12;14.90;80.70
4107;DHT22;21906;50.812;7.132;2023-05-15T04:34:38;14.90;80.30
4107;DHT22;21906;50.812;7.132;2023-05-15T04:37:05;14.90;80.20
4107;DHT22;21906;50.812;7.132;2023-05-15T04:39:31;14.80;80.30
4107;DHT22;21906;50.812;7.132;2023-05-15T04:41:56;14.90;80.20
4107;DHT22;21906;50.812;7.132;2023-05-15T04:44:22;14.90;80.00
4107;DHT22;21906;50.812;7.132;2023-05-15T04:46:47;14.90;80.00
4107;DHT22;21906;50.812;7.132;2023-05-15T04:49:13;14.90;79.70
4107;DHT22;21906;50.812;7.132;2023-05-15T04:51:39;14.80;79.70
4107;DHT22;21906;50.812;7.132;2023-05-15T04:54:06;14.80;79.60
4107;DHT22;21906;50.812;7.132;2023-05-15T04:56:32;14.80;79.40
4107;DHT22;21906;50.812;7.132;2023-05-15T04:58:57;14.90;78.70
4107;DHT22;21906;50.812;7.132;2023-05-15T05:01:23;14.90;78.00
4107;DHT22;21906;50.812;7.132;2023-05-15T05:03:48;14.80;78.00
4107;DHT22;21906;50.812;7.132;2023-05-15T05:06:14;14.80;78.20
4107;DHT22;21906;50.812;7.132;2023-05-15T05:08:40;14.80;78.10
4107;DHT22;21906;50.812;7.132;2023-05-15T05:11:06;14.80;78.00
4107;DHT22;21906;50.812;7.132;2023-05-15T05:13:31;14.70;78.30
4107;DHT22;21906;50.812;7.132;2023-05-15T05:15:57;14.70;78.30
4107;DHT22;21906;50.812;7.132;2023-05-15T05:18:22;14.70;78.50
4107;DHT22;21906;50.812;7.132;2023-05-15T05:20:48;14.80;78.50
4107;DHT22;21906;50.812;7.132;2023-05-15T05:23:15;14.80;78.20
4107;DHT22;21906;50.812;7.132;2023-05-15T05:25:40;14.70;78.20
4107;DHT22;21906;50.812;7.132;2023-05-15T05:28:06;14.80;78.40
4107;DHT22;21906;50.812;7.132;2023-05-15T05:30:32;14.80;78.20
4107;DHT22;21906;50.812;7.132;2023-05-15T05:32:57;14.90;78.10
4107;DHT22;21906;50.812;7.132;2023-05-15T05:35:23;15.00;77.60
4107;DHT22;21906;50.812;7.132;2023-05-15T05:37:48;14.90;77.60
4107;DHT22;21906;50.812;7.132;2023-05-15T05:40:14;14.90;77.40
4107;DHT22;21906;50.812;7.132;2023-05-15T05:42:42;14.90;77.00
4107;DHT22;21906;50.812;7.132;2023-05-15T05:45:07;14.90;77.10
4107;DHT22;21906;50.812;7.132;2023-05-15T05:47:33;14.90;77.10
4107;DHT22;21906;50.812;7.132;2023-05-15T05:49:59;14.80;77.60
4107;DHT22;21906;50.812;7.132;2023-05-15T05:52:24;14.80;77.60
4107;DHT22;21906;50.812;7.132;2023-05-15T05:54:50;14.70;77.50
4107;DHT22;21906;50.812;7.132;2023-05-15T05:57:16;14.80;77.30
4107;DHT22;21906;50.812;7.132;2023-05-15T05:59:41;14.80;77.20
4107;DHT22;21906;50.812;7.132;2023-05-15T06:02:07;14.70;77.40
4107;DHT22;21906;50.812;7.132;2023-05-15T06:04:33;14.60;77.00
4107;DHT22;21906;50.812;7.132;2023-05-15T06:06:59;14.70;77.00
4107;DHT22;21906;50.812;7.132;2023-05-15T06:09:24;14.80;76.60
4107;DHT22;21906;50.812;7.132;2023-05-15T06:11:50;14.80;76.40
4107;DHT22;21906;50.812;7.132;2023-05-15T06:14:16;14.80;76.60
4107;DHT22;21906;50.812;7.132;2023-05-15T06:16:42;14.80;75.90
4107;DHT22;21906;50.812;7.132;2023-05-15T06:19:08;14.70;76.10
4107;DHT22;21906;50.812;7.132;2023-05-15T06:21:33;14.70;76.50
4107;DHT22;21906;50.812;7.132;2023-05-15T06:23:59;14.80;76.30
4107;DHT22;21906;50.812;7.132;2023-05-15T06:26:25;14.80;76.10
4107;DHT22;21906;50.812;7.132;2023-05-15T06:28:51;14.80;76.40
4107;DHT22;21906;50.812;7.132;2023-05-15T06:31:16;14.90;76.40
4107;DHT22;21906;50.812;7.132;2023-05-15T06:33:42;14.90;76.30
4107;DHT22;21906;50.812;7.132;2023-05-15T06:36:07;14.80;76.60
4107;DHT22;21906;50.812;7.132;2023-05-15T06:38:33;14.90;77.00
4107;DHT22;21906;50.812;7.132;2023-05-15T06:40:59;14.90;76.70
4107;DHT22;21906;50.812;7.132;2023-05-15T06:43:24;14.90;76.60
4107;DHT22;21906;50.812;7.132;2023-05-15T06:45:50;14.90;76.60
4107;DHT22;21906;50.812;7.132;2023-05-15T06:48:16;14.90;76.40
4107;DHT22;21906;50.812;7.132;2023-05-15T06:50:41;14.90;76.50
4107;DHT22;21906;50.812;7.132;2023-05-15T06:53:07;14.90;76.50
4107;DHT22;21906;50.812;7.132;2023-05-15T06:55:32;14.90;76.70
4107;DHT22;21906;50.812;7.132;2023-05-15T06:58:00;14.90;76.80
4107;DHT22;21906;50.812;7.132;2023-05-15T07:00:26;14.90;76.50
4107;DHT22;21906;50.812;7.132;2023-05-15T07:02:52;14.90;76.70
4107;DHT22;21906;50.812;7.132;2023-05-15T07:05:17;15.00;76.80
4107;DHT22;21906;50.812;7.132;2023-05-15T07:07:43;14.90;76.30
4107;DHT22;21906;50.812;7.132;2023-05-15T07:10:08;14.90;76.60
4107;DHT22;21906;50.812;7.132;2023-05-15T07:12:34;15.00;75.90
4107;DHT22;21906;50.812;7.132;2023-05-15T07:15:00;14.90;76.00
4107;DHT22;21906;50.812;7.132;2023-05-15T07:17:25;14.90;76.20
4107;DHT22;21906;50.812;7.132;2023-05-15T07:19:51;15.00;76.00
4107;DHT22;21906;50.812;7.132;2023-05-15T07:22:17;14.90;76.00
4107;DHT22;21906;50.812;7.132;2023-05-15T07:24:42;14.90;75.90
4107;DHT22;21906;50.812;7.132;2023-05-15T07:27:08;15.00;75.80
4107;DHT22;21906;50.812;7.132;2023-05-15T07:29:33;15.00;75.50
4107;DHT22;21906;50.812;7.132;2023-05-15T07:31:59;15.00;75.60
4107;DHT22;21906;50.812;7.132;2023-05-15T07:34:25;15.10;75.50
4107;DHT22;21906;50.812;7.132;2023-05-15T07:36:51;15.10;75.40
4107;DHT22;21906;50.812;7.132;2023-05-15T07:39:16;15.20;75.30
4107;DHT22;21906;50.812;7.132;2023-05-15T07:41:42;15.10;75.10
4107;DHT22;21906;50.812;7.132;2023-05-15T07:44:07;15.00;75.00
4107;DHT22;21906;50.812;7.132;2023-05-15T07:46:33;14.90;75.60
4107;DHT22;21906;50.812;7.132;2023-05-15T07:48:59;14.90;75.80
4107;DHT22;21906;50.812;7.132;2023-05-15T07:51:25;14.70;75.50
4107;DHT22;21906;50.812;7.132;2023-05-15T07:53:50;14.80;75.50
4107;DHT22;21906;50.812;7.132;2023-05-15T07:56:16;14.70;76.20
4107;DHT22;21906;50.812;7.132;2023-05-15T07:58:42;14.60;75.90
4107;DHT22;21906;50.812;7.132;2023-05-15T08:01:07;14.70;75.90
4107;DHT22;21906;50.812;7.132;2023-05-15T08:03:33;14.60;76.30
4107;DHT22;21906;50.812;7.132;2023-05-15T08:05:59;14.80;76.00
4107;DHT22;21906;50.812;7.132;2023-05-15T08:08:24;14.90;75.50
4107;DHT22;21906;50.812;7.132;2023-05-15T08:10:50;14.90;75.30
4107;DHT22;21906;50.812;7.132;2023-05-15T08:13:16;14.90;75.10
4107;DHT22;21906;50.812;7.132;2023-05-15T08:15:42;15.00;74.10
4107;DHT22;21906;50.812;7.132;2023-05-15T08:18:08;15.00;74.00
4107;DHT22;21906;50.812;7.132;2023-05-15T08:20:37;15.00;73.90
4107;DHT22;21906;50.812;7.132;2023-05-15T08:23:03;14.90;74.30
4107;DHT22;21906;50.812;7.132;2023-05-15T08:25:29;15.00;73.80
4107;DHT22;21906;50.812;7.132;2023-05-15T08:27:54;15.00;73.80
4107;DHT22;21906;50.812;7.132;2023-05-15T08:30:20;14.90;74.70
4107;DHT22;21906;50.812;7.132;2023-05-15T08:32:46;14.90;74.80
4107;DHT22;21906;50.812;7.132;2023-05-15T08:35:13;14.80;75.10
4107;DHT22;21906;50.812;7.132;2023-05-15T08:37:39;14.80;74.90
4107;DHT22;21906;50.812;7.132;2023-05-15T08:40:06;14.80;74.40
4107;DHT22;21906;50.812;7.132;2023-05-15T08:42:52;14.80;74.70
4107;DHT22;21906;50.812;7.132;2023-05-15T08:45:19;14.90;74.40
4107;DHT22;21906;50.812;7.132;2023-05-15T08:47:46;14.90;73.80
4107;DHT22;21906;50.812;7.132;2023-05-15T08:50:13;14.90;74.00
4107;DHT22;21906;50.812;7.132;2023-05-15T08:52:46;15.00;74.40
4107;DHT22;21906;50.812;7.132;2023-05-15T08:55:15;15.20;74.50
4107;DHT22;21906;50.812;7.132;2023-05-15T08:57:42;15.20;73.30
4107;DHT22;21906;50.812;7.132;2023-05-15T09:00:09;15.30;72.90
4107;DHT22;21906;50.812;7.132;2023-05-15T09:02:42;15.20;72.10
4107;DHT22;21906;50.812;7.132;2023-05-15T09:05:08;15.20;72.60
4107;DHT22;21906;50.812;7.132;2023-05-15T09:07:34;15.00;73.00
4107;DHT22;21906;50.812;7.132;2023-05-15T09:10:02;14.90;73.50
4107;DHT22;21906;50.812;7.132;2023-05-15T09:12:32;14.90;74.30
4107;DHT22;21906;50.812;7.132;2023-05-15T09:15:11;14.90;73.80
4107;DHT22;21906;50.812;7.132;2023-05-15T09:17:38;15.00;74.50
4107;DHT22;21906;50.812;7.132;2023-05-15T09:20:05;15.00;73.70
4107;DHT22;21906;50.812;7.132;2023-05-15T09:22:33;15.20;73.20
4107;DHT22;21906;50.812;7.132;2023-05-15T09:24:59;15.40;72.10
4107;DHT22;21906;50.812;7.132;2023-05-15T09:27:27;15.40;72.20
4107;DHT22;21906;50.812;7.132;2023-05-15T09:29:53;15.40;72.20
4107;DHT22;21906;50.812;7.132;2023-05-15T09:32:20;15.40;72.70
4107;DHT22;21906;50.812;7.132;2023-05-15T09:34:46;15.70;72.20
4107;DHT22;21906;50.812;7.132;2023-05-15T09:37:32;15.70;71.40
4107;DHT22;21906;50.812;7.132;2023-05-15T09:40:08;15.90;71.30
4107;DHT22;21906;50.812;7.132;2023-05-15T09:42:35;15.90;70.90
4107;DHT22;21906;50.812;7.132;2023-05-15T09:45:01;16.20;71.20
4107;DHT22;21906;50.812;7.132;2023-05-15T09:47:27;16.30;72.10
4107;DHT22;21906;50.812;7.132;2023-05-15T09:49:53;16.40;71.20
4107;DHT22;21906;50.812;7.132;2023-05-15T09:52:18;16.40;69.10
4107;DHT22;21906;50.812;7.132;2023-05-15T09:54:46;16.30;70.10
4107;DHT22;21906;50.812;7.132;2023-05-15T09:57:13;16.20;69.10
4107;DHT22;21906;50.812;7.132;2023-05-15T09:59:47;16.20;69.40
4107;DHT22;21906;50.812;7.132;2023-05-15T10:02:25;16.40;69.10
4107;DHT22;21906;50.812;7.132;2023-05-15T10:04:57;16.60;69.60
4107;DHT22;21906;50.812;7.132;2023-05-15T10:07:29;16.80;68.80
4107;DHT22;21906;50.812;7.132;2023-05-15T10:09:56;16.80;67.70
4107;DHT22;21906;50.812;7.132;2023-05-15T10:12:23;16.60;68.80
4107;DHT22;21906;50.812;7.132;2023-05-15T10:14:50;16.80;68.60
4107;DHT22;21906;50.812;7.132;2023-05-15T10:17:18;16.80;69.10
4107;DHT22;21906;50.812;7.132;2023-05-15T10:19:44;16.70;68.50
4107;DHT22;21906;50.812;7.132;2023-05-15T10:22:11;16.80;70.00
4107;DHT22;21906;50.812;7.132;2023-05-15T10:24:39;17.00;69.30
4107;DHT22;21906;50.812;7.132;2023-05-15T10:27:08;17.20;68.30
4107;DHT22;21906;50.812;7.132;2023-05-15T10:29:35;17.40;67.40
4107;DHT22;21906;50.812;7.132;2023-05-15T10:32:03;17.40;67.30
4107;DHT22;21906;50.812;7.132;2023-05-15T10:34:29;17.40;67.80
4107;DHT22;21906;50.812;7.132;2023-05-15T10:36:55;17.40;68.70
4107;DHT22;21906;50.812;7.132;2023-05-15T10:39:22;17.40;68.50
4107;DHT22;21906;50.812;7.132;2023-05-15T10:41:49;17.30;67.80
4107;DHT22;21906;50.812;7.132;2023-05-15T10:44:15;17.20;68.30
4107;DHT22;21906;50.812;7.132;2023-05-15T10:46:42;17.40;66.80
4107;DHT22;21906;50.812;7.132;2023-05-15T10:49:08;17.70;67.50
4107;DHT22;21906;50.812;7.132;2023-05-15T10:51:36;17.90;66.40
4107;DHT22;21906;50.812;7.132;2023-05-15T10:54:02;18.10;65.90
4107;DHT22;21906;50.812;7.132;2023-05-15T10:56:36;18.20;66.90
4107;DHT22;21906;50.812;7.132;2023-05-15T10:59:09;18.20;64.60
4107;DHT22;21906;50.812;7.132;2023-05-15T11:01:39;18.50;63.60
4107;DHT22;21906;50.812;7.132;2023-05-15T11:04:15;18.60;64.60
4107;DHT22;21906;50.812;7.132;2023-05-15T11:06:46;18.80;65.30
4107;DHT22;21906;50.812;7.132;2023-05-15T11:11:54;18.60;62.60
4107;DHT22;21906;50.812;7.132;2023-05-15T11:14:25;18.50;63.70
4107;DHT22;21906;50.812;7.132;2023-05-15T11:19:39;18.90;63.10
4107;DHT22;21906;50.812;7.132;2023-05-15T11:22:31;19.10;61.70
4107;DHT22;21906;50.812;7.132;2023-05-15T11:27:29;19.40;60.30
4107;DHT22;21906;50.812;7.132;2023-05-15T11:35:34;19.70;61.40
4107;DHT22;21906;50.812;7.132;2023-05-15T11:40:48;20.20;56.30
4107;DHT22;21906;50.812;7.132;2023-05-15T11:43:27;20.20;54.30
4107;DHT22;21906;50.812;7.132;2023-05-15T11:46:13;20.10;57.00
4107;DHT22;21906;50.812;7.132;2023-05-15T11:48:41;20.10;56.20
4107;DHT22;21906;50.812;7.132;2023-05-15T11:51:18;20.30;55.20
4107;DHT22;21906;50.812;7.132;2023-05-15T11:53:44;20.30;53.50
4107;DHT22;21906;50.812;7.132;2023-05-15T11:58:43;20.70;53.00
4107;DHT22;21906;50.812;7.132;2023-05-15T12:01:11;20.80;54.50
4107;DHT22;21906;50.812;7.132;2023-05-15T12:03:37;20.90;51.60
4107;DHT22;21906;50.812;7.132;2023-05-15T12:06:03;20.90;51.00
4107;DHT22;21906;50.812;7.132;2023-05-15T12:08:33;20.80;52.50
4107;DHT22;21906;50.812;7.132;2023-05-15T12:11:00;21.00;47.80
4107;DHT22;21906;50.812;7.132;2023-05-15T12:13:26;21.10;49.20
4107;DHT22;21906;50.812;7.132;2023-05-15T12:15:55;21.00;47.40
4107;DHT22;21906;50.812;7.132;2023-05-15T12:18:21;21.10;49.40
4107;DHT22;21906;50.812;7.132;2023-05-15T12:20:47;21.30;47.60
4107;DHT22;21906;50.812;7.132;2023-05-15T12:23:15;21.30;48.60
4107;DHT22;21906;50.812;7.132;2023-05-15T12:25:42;21.40;48.50
4107;DHT22;21906;50.812;7.132;2023-05-15T12:28:10;21.40;47.90
4107;DHT22;21906;50.812;7.132;2023-05-15T12:30:36;21.40;48.60
4107;DHT22;21906;50.812;7.132;2023-05-15T12:33:03;21.50;46.20
4107;DHT22;21906;50.812;7.132;2023-05-15T12:35:52;21.90;45.70
4107;DHT22;21906;50.812;7.132;2023-05-15T12:38:16;21.70;45.80
4107;DHT22;21906;50.812;7.132;2023-05-15T12:40:43;21.60;46.90
4107;DHT22;21906;50.812;7.132;2023-05-15T12:43:12;21.60;47.50
4107;DHT22;21906;50.812;7.132;2023-05-15T12:45:39;21.80;48.30
4107;DHT22;21906;50.812;7.132;2023-05-15T12:48:05;21.90;47.30
4107;DHT22;21906;50.812;7.132;2023-05-15T12:50:33;21.90;45.20
4107;DHT22;21906;50.812;7.132;2023-05-15T12:53:04;22.20;47.10
4107;DHT22;21906;50.812;7.132;2023-05-15T12:55:32;22.20;42.30
4107;DHT22;21906;50.812;7.132;2023-05-15T12:58:09;22.20;41.80
4107;DHT22;21906;50.812;7.132;2023-05-15T13:00:37;22.10;41.60
4107;DHT22;21906;50.812;7.132;2023-05-15T13:03:04;22.10;43.30
4107;DHT22;21906;50.812;7.132;2023-05-15T13:05:34;22.20;42.90
4107;DHT22;21906;50.812;7.132;2023-05-15T13:08:01;22.30;42.00
4107;DHT22;21906;50.812;7.132;2023-05-15T13:10:30;22.40;39.10
4107;DHT22;21906;50.812;7.132;2023-05-15T13:12:56;22.50;40.30
4107;DHT22;21906;50.812;7.132;2023-05-15T13:15:51;22.70;41.20
4107;DHT22;21906;50.812;7.132;2023-05-15T13:18:18;23.00;39.10
4107;DHT22;21906;50.812;7.132;2023-05-15T13:20:49;22.90;40.80
4107;DHT22;21906;50.812;7.132;2023-05-15T13:23:19;23.10;38.80
4107;DHT22;21906;50.812;7.132;2023-05-15T13:25:46;22.90;38.60
4107;DHT22;21906;50.812;7.132;2023-05-15T13:28:12;23.20;39.60
4107;DHT22;21906;50.812;7.132;2023-05-15T13:30:39;23.30;38.60
4107;DHT22;21906;50.812;7.132;2023-05-15T13:33:11;23.00;39.00
4107;DHT22;21906;50.812;7.132;2023-05-15T13:35:38;22.90;42.10
4107;DHT22;21906;50.812;7.132;2023-05-15T13:38:04;23.30;43.00
4107;DHT22;21906;50.812;7.132;2023-05-15T13:40:30;23.50;38.10
4107;DHT22;21906;50.812;7.132;2023-05-15T13:43:01;23.50;38.20
4107;DHT22;21906;50.812;7.132;2023-05-15T13:45:27;23.40;40.30
4107;DHT22;21906;50.812;7.132;2023-05-15T13:47:54;23.60;38.00
4107;DHT22;21906;50.812;7.132;2023-05-15T13:50:19;23.50;39.80
4107;DHT22;21906;50.812;7.132;2023-05-15T13:52:45;23.50;40.50
4107;DHT22;21906;50.812;7.132;2023-05-15T13:55:11;23.20;38.00
4107;DHT22;21906;50.812;7.132;2023-05-15T13:57:41;23.30;38.30
4107;DHT22;21906;50.812;7.132;2023-05-15T14:00:09;23.30;38.30
4107;DHT22;21906;50.812;7.132;2023-05-15T14:02:37;23.30;39.00
4107;DHT22;21906;50.812;7.132;2023-05-15T14:05:03;23.40;37.70
4107;DHT22;21906;50.812;7.132;2023-05-15T14:07:29;23.50;39.20
4107;DHT22;21906;50.812;7.132;2023-05-15T14:09:56;23.60;37.60
4107;DHT22;21906;50.812;7.132;2023-05-15T14:12:22;23.70;39.50
4107;DHT22;21906;50.812;7.132;2023-05-15T14:14:47;24.00;35.90
4107;DHT22;21906;50.812;7.132;2023-05-15T14:17:13;24.10;39.20
4107;DHT22;21906;50.812;7.132;2023-05-15T14:19:40;24.10;37.40
4107;DHT22;21906;50.812;7.132;2023-05-15T14:22:05;24.10;38.10
4107;DHT22;21906;50.812;7.132;2023-05-15T14:24:31;24.20;35.20
4107;DHT22;21906;50.812;7.132;2023-05-15T14:26:57;24.30;35.80
4107;DHT22;21906;50.812;7.132;2023-05-15T14:29:23;24.30;36.60
4107;DHT22;21906;50.812;7.132;2023-05-15T14:31:48;24.40;36.00
4107;DHT22;21906;50.812;7.132;2023-05-15T14:34:15;24.60;37.00
4107;DHT22;21906;50.812;7.132;2023-05-15T14:36:41;24.50;36.50
4107;DHT22;21906;50.812;7.132;2023-05-15T14:39:07;24.20;36.30
4107;DHT22;21906;50.812;7.132;2023-05-15T14:41:32;24.20;36.00
4107;DHT22;21906;50.812;7.132;2023-05-15T14:43:58;24.30;37.40
4107;DHT22;21906;50.812;7.132;2023-05-15T14:46:24;24.60;35.80
4107;DHT22;21906;50.812;7.132;2023-05-15T14:48:49;25.00;34.00
4107;DHT22;21906;50.812;7.132;2023-05-15T14:51:15;25.60;34.50
4107;DHT22;21906;50.812;7.132;2023-05-15T14:53:41;26.30;33.20
4107;DHT22;21906;50.812;7.132;2023-05-15T14:56:07;26.40;32.40
4107;DHT22;21906;50.812;7.132;2023-05-15T14:58:33;25.90;33.70
4107;DHT22;21906;50.812;7.132;2023-05-15T15:00:58;25.30;34.20
4107;DHT22;21906;50.812;7.132;2023-05-15T15:03:24;24.90;35.00
4107;DHT22;21906;50.812;7.132;2023-05-15T15:05:50;25.30;34.90
4107;DHT22;21906;50.812;7.132;2023-05-15T15:08:18;25.60;35.80
4107;DHT22;21906;50.812;7.132;2023-05-15T15:10:44;25.80;36.70
4107;DHT22;21906;50.812;7.132;2023-05-15T15:13:10;25.80;36.90
4107;DHT22;21906;50.812;7.132;2023-05-15T15:15:39;25.40;38.80
4107;DHT22;21906;50.812;7.132;2023-05-15T15:18:05;25.20;39.40
4107;DHT22;21906;50.812;7.132;2023-05-15T15:20:32;25.00;40.30
4107;DHT22;21906;50.812;7.132;2023-05-15T15:22:57;24.80;39.80
4107;DHT22;21906;50.812;7.132;2023-05-15T15:25:23;24.40;39.80
4107;DHT22;21906;50.812;7.132;2023-05-15T15:27:49;25.30;39.70
4107;DHT22;21906;50.812;7.132;2023-05-15T15:30:15;26.40;37.80
4107;DHT22;21906;50.812;7.132;2023-05-15T15:32:42;26.50;36.90
4107;DHT22;21906;50.812;7.132;2023-05-15T15:35:12;27.50;37.60
4107;DHT22;21906;50.812;7.132;2023-05-15T15:37:37;28.70;33.70
4107;DHT22;21906;50.812;7.132;2023-05-15T15:40:05;28.50;32.50
4107;DHT22;21906;50.812;7.132;2023-05-15T15:42:32;28.20;33.90
4107;DHT22;21906;50.812;7.132;2023-05-15T15:44:58;27.70;34.40
4107;DHT22;21906;50.812;7.132;2023-05-15T15:47:24;26.60;35.20
4107;DHT22;21906;50.812;7.132;2023-05-15T15:49:51;26.60;36.00
4107;DHT22;21906;50.812;7.132;2023-05-15T15:52:17;26.90;35.50
4107;DHT22;21906;50.812;7.132;2023-05-15T15:54:43;27.50;35.00
4107;DHT22;21906;50.812;7.132;2023-05-15T15:57:15;28.10;35.40
4107;DHT22;21906;50.812;7.132;2023-05-15T15:59:41;29.00;33.30
4107;DHT22;21906;50.812;7.132;2023-05-15T16:02:07;28.60;34.30
4107;DHT22;21906;50.812;7.132;2023-05-15T16:04:34;28.80;32.80
4107;DHT22;21906;50.812;7.132;2023-05-15T16:07:00;28.90;34.20
4107;DHT22;21906;50.812;7.132;2023-05-15T16:09:25;29.10;32.90
4107;DHT22;21906;50.812;7.132;2023-05-15T16:11:51;28.80;33.30
4107;DHT22;21906;50.812;7.132;2023-05-15T16:14:18;28.30;33.80
4107;DHT22;21906;50.812;7.132;2023-05-15T16:16:45;27.70;34.60
4107;DHT22;21906;50.812;7.132;2023-05-15T16:19:11;27.20;35.70
4107;DHT22;21906;50.812;7.132;2023-05-15T16:21:37;26.60;37.00
4107;DHT22;21906;50.812;7.132;2023-05-15T16:24:02;25.50;37.80